Time;durP1;ratioP1;P1;durP2;ratioP2;P2;SDS_P1;SDS_P2;PMS_P1;PMS_P2;Temp;Humidity;BMP_temperature;BMP_pressure;BME280_temperature;BME280_humidity;BME280_pressure;Samples;Min_cycle;Max_cycle;Signal;HPM_P1;HPM_P2
2022/03/16 00:00:18;;;;;;;31.43;19.20;;;;;;;5.62;75.58;100619.41;5091116;28;20248;-53
2022/03/16 00:02:45;;;;;;;30.77;19.30;;;;;;;5.55;75.98;100615.03;5091251;28;20207;-50
2022/03/16 00:05:14;;;;;;;31.97;19.57;;;;;;;5.54;76.46;100603.00;5090988;28;20203;-50
2022/03/16 00:07:41;;;;;;;33.23;18.57;;;;;;;5.43;76.64;100596.91;5090869;28;20290;-51
2022/03/16 00:10:09;;;;;;;30.67;18.70;;;;;;;5.50;76.98;100609.00;5090872;28;20223;-52
2022/03/16 00:12:36;;;;;;;29.30;17.87;;;;;;;5.49;76.70;100607.28;5091375;28;20195;-50
2022/03/16 00:15:05;;;;;;;45.67;19.53;;;;;;;5.45;78.09;100608.09;5090947;28;20734;-53
2022/03/16 00:17:32;;;;;;;46.07;21.87;;;;;;;5.57;77.12;100603.03;5091004;28;20621;-53
2022/03/16 00:19:58;;;;;;;39.27;20.50;;;;;;;5.57;77.03;100602.19;5090866;28;20196;-49
2022/03/16 00:22:27;;;;;;;40.97;20.57;;;;;;;5.59;77.44;100603.94;5091042;28;20550;-50
2022/03/16 00:24:54;;;;;;;47.90;19.77;;;;;;;5.51;78.59;100599.56;5090997;28;20331;-50
2022/03/16 00:27:21;;;;;;;41.80;18.90;;;;;;;5.47;79.00;100590.94;5090745;28;20203;-50
2022/03/16 00:29:47;;;;;;;41.03;18.97;;;;;;;5.57;78.42;100595.31;5090841;28;20210;-50
2022/03/16 00:32:14;;;;;;;40.73;18.67;;;;;;;5.46;79.65;100586.63;5090765;28;20223;-50
2022/03/16 00:34:41;;;;;;;44.57;19.23;;;;;;;5.46;79.80;100581.50;5090798;28;20199;-50
2022/03/16 00:37:08;;;;;;;28.43;16.67;;;;;;;5.44;80.08;100581.47;5090803;28;20205;-53
2022/03/16 00:39:37;;;;;;;30.53;17.07;;;;;;;5.44;80.49;100585.75;5090791;28;20199;-52
2022/03/16 00:42:04;;;;;;;24.37;15.37;;;;;;;5.34;81.38;100578.81;5090586;28;20195;-52
2022/03/16 00:44:34;;;;;;;22.83;14.60;;;;;;;5.34;81.63;100564.22;5090562;28;20457;-53
2022/03/16 00:47:02;;;;;;;25.13;14.37;;;;;;;5.34;82.33;100569.38;5090808;28;20217;-52
2022/03/16 00:49:29;;;;;;;17.43;12.90;;;;;;;5.36;82.35;100570.25;5090547;28;20199;-53
2022/03/16 00:51:56;;;;;;;20.77;13.77;;;;;;;5.43;82.16;100574.59;5090702;28;20227;-51
2022/03/16 00:54:23;;;;;;;19.13;12.93;;;;;;;5.37;82.38;100564.25;5090438;28;20766;-53
2022/03/16 00:56:51;;;;;;;21.57;13.93;;;;;;;5.09;82.49;100511.66;5090638;28;20199;-53
2022/03/16 00:59:18;;;;;;;24.57;15.87;;;;;;;5.26;83.26;100567.56;5090235;28;20200;-53
2022/03/16 01:01:45;;;;;;;20.50;13.67;;;;;;;5.39;82.85;100566.84;5090653;28;20308;-53
2022/03/16 01:04:11;;;;;;;21.53;15.37;;;;;;;5.51;81.91;100566.97;5090527;28;20581;-53
2022/03/16 01:06:38;;;;;;;23.00;15.27;;;;;;;5.53;81.74;100554.94;5090557;28;20191;-52
2022/03/16 01:09:05;;;;;;;28.17;16.20;;;;;;;5.52;82.01;100555.81;5089902;28;20196;-50
2022/03/16 01:11:32;;;;;;;28.87;16.93;;;;;;;5.57;81.57;100560.97;5089969;28;20223;-51
2022/03/16 01:14:01;;;;;;;23.80;16.70;;;;;;;5.52;81.56;100557.53;5090038;28;20199;-49
2022/03/16 01:16:27;;;;;;;28.77;17.90;;;;;;;5.60;81.15;100550.72;5090258;28;20202;-52
2022/03/16 01:18:54;;;;;;;28.67;17.00;;;;;;;5.61;80.35;100555.88;5090332;28;20197;-53
2022/03/16 01:21:21;;;;;;;28.10;17.63;;;;;;;5.54;80.64;100556.66;5090182;28;20193;-52
2022/03/16 01:23:48;;;;;;;26.37;17.43;;;;;;;5.56;80.72;100547.25;5090082;28;20195;-52
2022/03/16 01:26:16;;;;;;;26.90;17.47;;;;;;;5.54;80.34;100541.22;5089749;28;20235;-53
2022/03/16 01:28:43;;;;;;;28.03;17.33;;;;;;;5.46;80.38;100528.28;5093798;28;20294;-53
2022/03/16 01:31:11;;;;;;;28.70;16.70;;;;;;;5.52;80.46;100527.47;5094415;28;20225;-55
2022/03/16 01:33:38;;;;;;;25.17;16.70;;;;;;;5.46;79.66;100517.97;5094034;28;20199;-51
2022/03/16 01:36:05;;;;;;;25.93;17.13;;;;;;;5.50;80.37;100518.88;5093880;28;20278;-53
2022/03/16 01:38:32;;;;;;;26.67;17.33;;;;;;;5.52;80.30;100522.34;5094171;28;20195;-49
2022/03/16 01:40:59;;;;;;;26.63;17.20;;;;;;;5.50;80.42;100513.72;5093920;28;20199;-50
2022/03/16 01:43:26;;;;;;;32.47;17.87;;;;;;;5.37;80.54;100493.88;5093882;28;20282;-49
2022/03/16 01:45:53;;;;;;;26.97;17.63;;;;;;;5.49;80.61;100512.00;5094053;28;20191;-50
2022/03/16 01:48:22;;;;;;;29.47;17.40;;;;;;;5.33;80.93;100482.69;5093713;28;20201;-49
2022/03/16 01:50:50;;;;;;;28.47;17.70;;;;;;;5.43;80.81;100492.19;5093249;28;20230;-50
2022/03/16 01:53:17;;;;;;;30.27;18.47;;;;;;;5.45;80.71;100479.34;5092554;28;20690;-50
2022/03/16 01:55:44;;;;;;;25.43;16.00;;;;;;;5.36;80.52;100459.56;5092695;28;20204;-50
2022/03/16 01:58:11;;;;;;;32.93;18.10;;;;;;;5.49;80.36;100475.94;5092702;28;20210;-50
2022/03/16 02:00:39;;;;;;;26.70;17.43;;;;;;;5.38;80.54;100457.00;5092536;28;20202;-51
2022/03/16 02:03:07;;;;;;;32.17;18.73;;;;;;;5.32;81.65;100452.66;5092689;28;20199;-53
2022/03/16 02:05:36;;;;;;;28.97;19.20;;;;;;;5.20;81.71;100447.41;5093005;28;20271;-53
2022/03/16 02:08:04;;;;;;;29.07;18.50;;;;;;;5.25;82.01;100450.88;5092762;28;20567;-52
2022/03/16 02:10:31;;;;;;;34.80;19.03;;;;;;;5.05;82.79;100443.00;5092319;28;20294;-52
2022/03/16 02:12:58;;;;;;;30.97;19.67;;;;;;;5.04;82.97;100437.84;5093414;28;20735;-52
2022/03/16 02:15:25;;;;;;;34.63;19.83;;;;;;;4.93;83.35;100439.47;5093302;28;20201;-50
2022/03/16 02:17:55;;;;;;;32.80;20.70;;;;;;;4.98;83.51;100423.22;5092608;28;20218;-50
2022/03/16 02:20:22;;;;;;;36.47;21.13;;;;;;;4.99;83.07;100435.22;5092107;28;20710;-50
2022/03/16 02:22:55;;;;;;;34.53;22.33;;;;;;;5.02;83.50;100442.97;5092512;28;20686;-49
2022/03/16 02:25:22;;;;;;;37.47;22.53;;;;;;;4.95;83.86;100448.94;5092042;28;20737;-52
2022/03/16 02:27:49;;;;;;;37.93;23.53;;;;;;;4.48;85.18;100385.91;5093195;28;20199;-52
2022/03/16 02:30:16;;;;;;;44.60;24.77;;;;;;;4.97;84.93;100433.47;5093279;28;20197;-53
2022/03/16 02:32:43;;;;;;;42.27;24.27;;;;;;;4.95;84.99;100427.50;5093315;28;20229;-50
2022/03/16 02:35:10;;;;;;;40.30;26.00;;;;;;;4.91;85.68;100433.44;5092980;28;20209;-52
2022/03/16 02:37:38;;;;;;;42.90;25.67;;;;;;;4.91;85.43;100425.72;5093320;28;20195;-53
2022/03/16 02:40:09;;;;;;;38.60;24.83;;;;;;;4.75;86.31;100427.28;5093426;28;20667;-49
2022/03/16 02:42:37;;;;;;;46.77;27.83;;;;;;;4.76;86.22;100423.88;5093288;28;20227;-50
2022/03/16 02:45:05;;;;;;;50.33;27.20;;;;;;;4.80;86.16;100419.63;5092873;28;20200;-52
2022/03/16 02:47:32;;;;;;;53.17;29.20;;;;;;;4.88;86.20;100418.84;5092600;28;20202;-53
2022/03/16 02:49:59;;;;;;;45.43;26.93;;;;;;;4.74;86.78;100413.56;5092755;28;20294;-54
2022/03/16 02:52:26;;;;;;;50.07;29.50;;;;;;;4.86;86.30;100425.69;5092982;28;20229;-53
2022/03/16 02:54:53;;;;;;;50.70;30.10;;;;;;;4.82;86.40;100431.66;5092984;28;20202;-53
2022/03/16 02:57:21;;;;;;;50.07;29.43;;;;;;;4.61;87.61;100418.59;5092693;28;20242;-53
2022/03/16 02:59:48;;;;;;;47.17;30.03;;;;;;;4.80;87.24;100435.94;5092864;28;20203;-53
2022/03/16 03:02:15;;;;;;;46.83;28.10;;;;;;;4.99;85.23;100427.50;5092272;28;20195;-53
2022/03/16 03:04:42;;;;;;;51.40;29.40;;;;;;;4.93;85.77;100412.03;5092726;28;20206;-53
2022/03/16 03:07:09;;;;;;;50.13;28.47;;;;;;;4.72;87.10;100412.72;5092501;28;20210;-52
2022/03/16 03:09:36;;;;;;;52.10;27.80;;;;;;;4.72;87.77;100420.44;5092939;28;20325;-52
2022/03/16 03:12:04;;;;;;;51.10;27.93;;;;;;;4.78;88.16;100417.03;5092543;28;20235;-52
2022/03/16 03:14:33;;;;;;;53.07;28.87;;;;;;;4.74;88.89;100423.00;5092588;28;20606;-53
2022/03/16 03:17:00;;;;;;;49.20;29.27;;;;;;;4.73;88.37;100429.00;5092623;28;20284;-52
2022/03/16 03:19:27;;;;;;;45.90;28.70;;;;;;;4.66;87.95;100411.78;5092665;28;20221;-52
2022/03/16 03:21:54;;;;;;;47.87;28.93;;;;;;;4.74;87.64;100418.72;5092555;28;20283;-53
2022/03/16 03:24:21;;;;;;;46.27;27.93;;;;;;;4.50;88.29;100390.22;5092479;28;20290;-53
2022/03/16 03:26:48;;;;;;;46.77;28.27;;;;;;;4.67;88.51;100416.06;5091719;28;20282;-52
2022/03/16 03:29:15;;;;;;;48.87;29.50;;;;;;;4.64;89.64;100419.47;5092342;28;20203;-53
2022/03/16 03:31:44;;;;;;;45.73;27.97;;;;;;;4.63;89.01;100406.59;5091819;28;20218;-53
2022/03/16 03:34:11;;;;;;;45.33;28.90;;;;;;;4.59;88.96;100399.72;5091525;28;20583;-52
2022/03/16 03:36:38;;;;;;;47.77;28.00;;;;;;;4.58;88.29;100382.56;5091698;28;20249;-53
2022/03/16 03:39:05;;;;;;;53.00;28.57;;;;;;;4.74;87.41;100405.00;5091607;28;20187;-52
2022/03/16 03:41:32;;;;;;;47.53;28.37;;;;;;;4.86;86.33;100386.22;5090024;28;20273;-51
2022/03/16 03:43:59;;;;;;;49.70;29.57;;;;;;;4.71;87.34;100384.41;5091827;28;20586;-50
2022/03/16 03:46:26;;;;;;;47.47;28.83;;;;;;;4.67;87.99;100380.09;5091926;28;20738;-52
2022/03/16 03:48:55;;;;;;;55.03;27.73;;;;;;;4.64;88.05;100374.91;5091866;28;20196;-53
2022/03/16 03:51:22;;;;;;;45.40;26.90;;;;;;;4.69;87.92;100380.97;5091233;28;20584;-53
2022/03/16 03:53:49;;;;;;;46.80;29.03;;;;;;;4.63;88.26;100375.75;5084625;28;20200;-52
2022/03/16 03:56:16;;;;;;;45.53;28.10;;;;;;;4.69;88.08;100386.09;5084749;28;20203;-52
2022/03/16 03:58:43;;;;;;;52.73;27.67;;;;;;;4.91;87.01;100385.44;5081461;28;20651;-49
2022/03/16 04:01:10;;;;;;;52.33;28.00;;;;;;;4.87;86.45;100375.97;5081416;28;20198;-50
2022/03/16 04:03:37;;;;;;;53.93;28.50;;;;;;;4.78;87.10;100375.03;5078127;28;20638;-50
2022/03/16 04:06:05;;;;;;;51.10;28.60;;;;;;;4.78;87.58;100369.88;5081680;28;20655;-53
2022/03/16 04:08:32;;;;;;;50.77;28.40;;;;;;;4.78;87.32;100367.31;5082751;28;20203;-52
2022/03/16 04:10:59;;;;;;;45.47;27.00;;;;;;;4.79;87.50;100372.47;5086043;28;20229;-53
2022/03/16 04:13:26;;;;;;;46.67;27.43;;;;;;;4.78;87.68;100377.59;5082434;28;20227;-52
2022/03/16 04:15:53;;;;;;;44.70;27.20;;;;;;;4.69;88.93;100376.69;5081454;28;20198;-52
2022/03/16 04:18:20;;;;;;;43.13;26.90;;;;;;;4.71;89.09;100381.84;5078068;28;20195;-53
2022/03/16 04:20:47;;;;;;;47.00;27.90;;;;;;;4.81;88.53;100369.91;5078257;28;20198;-53
2022/03/16 04:23:15;;;;;;;47.90;27.07;;;;;;;4.80;88.31;100356.19;5079194;28;20220;-53
2022/03/16 04:25:42;;;;;;;49.13;29.13;;;;;;;5.01;87.22;100365.78;5078864;28;20231;-53
2022/03/16 04:28:09;;;;;;;48.60;27.53;;;;;;;4.96;87.39;100364.91;5079079;28;20209;-52
2022/03/16 04:30:36;;;;;;;53.87;28.47;;;;;;;4.88;89.20;100359.69;5075584;28;20251;-52
2022/03/16 04:33:03;;;;;;;46.57;28.23;;;;;;;4.87;88.56;100360.53;5076108;28;20219;-53
2022/03/16 04:35:30;;;;;;;49.90;28.27;;;;;;;5.14;88.10;100370.16;5079368;28;20589;-52
2022/03/16 04:37:57;;;;;;;47.07;27.57;;;;;;;5.18;87.28;100383.94;5077866;28;20261;-51
2022/03/16 04:40:25;;;;;;;41.23;26.57;;;;;;;5.27;86.41;100387.41;5077813;28;20195;-49
2022/03/16 04:42:52;;;;;;;44.20;26.77;;;;;;;5.31;85.63;100383.13;5072824;28;20196;-50
2022/03/16 04:45:19;;;;;;;43.37;27.13;;;;;;;5.29;85.18;100353.97;5070487;28;20210;-50
2022/03/16 04:47:46;;;;;;;49.90;28.77;;;;;;;5.41;84.36;100360.06;5070251;28;20222;-49
2022/03/16 04:50:13;;;;;;;45.63;26.40;;;;;;;5.53;83.44;100377.25;5072158;28;20208;-54
2022/03/16 04:52:45;;;;;;;48.67;28.23;;;;;;;5.39;84.53;100372.06;5070840;28;20231;-52
2022/03/16 04:55:11;;;;;;;46.27;26.67;;;;;;;5.33;85.28;100358.25;5079221;28;20219;-52
2022/03/16 04:57:40;;;;;;;54.37;28.87;;;;;;;5.26;87.29;100354.81;5083887;28;20331;-52
2022/03/16 05:00:08;;;;;;;53.67;28.57;;;;;;;5.30;87.55;100361.72;5086792;28;20222;-52
2022/03/16 05:02:36;;;;;;;61.43;31.70;;;;;;;5.22;88.66;100358.19;5086862;28;20223;-51
2022/03/16 05:05:04;;;;;;;57.67;33.60;;;;;;;5.23;89.20;100362.50;5089926;28;20685;-50
2022/03/16 05:07:31;;;;;;;79.37;36.97;;;;;;;5.24;90.41;100355.63;5090312;28;20230;-50
2022/03/16 05:09:57;;;;;;;68.17;36.33;;;;;;;5.13;90.56;100347.00;5086527;28;20216;-50
2022/03/16 05:12:24;;;;;;;71.30;40.60;;;;;;;5.02;91.92;100357.22;5088403;28;20234;-50
2022/03/16 05:14:53;;;;;;;71.57;35.40;;;;;;;4.88;92.05;100345.97;5089662;28;20615;-51
2022/03/16 05:17:19;;;;;;;69.47;38.40;;;;;;;4.93;91.86;100345.16;5090026;28;20227;-50
2022/03/16 05:19:48;;;;;;;77.73;37.83;;;;;;;4.95;92.01;100347.75;5089774;28;20222;-48
2022/03/16 05:22:15;;;;;;;70.90;38.03;;;;;;;4.62;92.43;100294.34;5089843;28;20382;-51
2022/03/16 05:24:42;;;;;;;72.27;37.63;;;;;;;4.95;92.36;100337.44;5094332;28;20733;-51
2022/03/16 05:27:09;;;;;;;72.70;37.20;;;;;;;4.97;92.17;100346.00;5110036;28;20599;-51
2022/03/16 05:29:36;;;;;;;70.97;38.10;;;;;;;4.99;92.10;100352.03;5074906;28;20223;-49
2022/03/16 05:32:05;;;;;;;79.40;38.20;;;;;;;4.99;91.92;100341.75;5069465;28;20259;-51
2022/03/16 05:34:31;;;;;;;75.07;38.83;;;;;;;5.00;92.07;100325.47;5068692;28;20594;-48
2022/03/16 05:36:58;;;;;;;84.23;39.67;;;;;;;4.71;91.70;100272.13;5071879;28;20216;-49
2022/03/16 05:39:25;;;;;;;87.23;46.50;;;;;;;5.02;91.91;100327.19;5076468;28;20232;-50
2022/03/16 05:41:52;;;;;;;115.57;63.40;;;;;;;4.98;92.25;100327.16;5078826;28;20221;-49
2022/03/16 05:44:19;;;;;;;98.87;52.87;;;;;;;4.98;92.28;100320.31;5081609;28;20706;-50
2022/03/16 05:46:46;;;;;;;97.77;48.40;;;;;;;4.90;92.82;100309.09;5089215;28;20218;-49
2022/03/16 05:49:14;;;;;;;71.43;35.13;;;;;;;4.92;92.70;100302.28;5089147;28;20207;-49
2022/03/16 05:51:41;;;;;;;67.33;31.20;;;;;;;4.81;92.34;100296.19;5089641;28;20693;-50
2022/03/16 05:54:08;;;;;;;62.17;32.13;;;;;;;4.80;92.20;100301.31;5090070;28;20199;-50
2022/03/16 05:56:35;;;;;;;63.90;30.90;;;;;;;4.81;92.28;100300.47;5089919;28;20202;-49
2022/03/16 05:59:02;;;;;;;62.83;32.80;;;;;;;4.85;91.96;100305.66;5090007;28;20192;-49
2022/03/16 06:01:29;;;;;;;62.80;33.20;;;;;;;4.89;92.48;100309.97;5090237;28;20196;-49
2022/03/16 06:03:56;;;;;;;67.70;34.57;;;;;;;4.89;92.18;100299.66;5090193;28;20681;-49
2022/03/16 06:06:26;;;;;;;86.13;36.00;;;;;;;4.95;92.64;100299.72;5090236;28;20191;-52
2022/03/16 06:08:53;;;;;;;75.73;37.13;;;;;;;4.96;93.68;100303.16;5090098;28;20211;-52
2022/03/16 06:11:20;;;;;;;72.80;36.93;;;;;;;4.98;93.71;100310.00;5090111;28;20195;-49
2022/03/16 06:13:47;;;;;;;74.03;36.07;;;;;;;4.99;94.21;100305.72;5091340;28;20226;-49
2022/03/16 06:16:14;;;;;;;77.07;34.77;;;;;;;4.97;94.65;100310.00;5093427;28;20227;-50
2022/03/16 06:18:41;;;;;;;91.47;36.60;;;;;;;5.09;94.45;100302.34;5081478;28;20206;-50
2022/03/16 06:21:08;;;;;;;65.60;35.87;;;;;;;5.11;93.79;100308.38;5073140;28;20200;-50
2022/03/16 06:23:37;;;;;;;77.10;35.20;;;;;;;5.19;92.96;100308.44;5072988;28;20282;-50
2022/03/16 06:26:05;;;;;;;79.83;38.87;;;;;;;5.25;92.58;100299.03;5072975;28;20266;-52
2022/03/16 06:28:32;;;;;;;92.63;41.80;;;;;;;5.21;92.61;100293.84;5072866;28;20200;-52
2022/03/16 06:30:59;;;;;;;96.83;42.77;;;;;;;5.26;92.53;100294.75;5073427;28;20222;-52
2022/03/16 06:33:26;;;;;;;91.07;44.00;;;;;;;5.08;93.10;100301.50;5073237;28;20226;-51
2022/03/16 06:35:53;;;;;;;74.07;39.37;;;;;;;4.98;92.31;100281.72;5073145;28;20196;-52
2022/03/16 06:38:20;;;;;;;92.97;41.10;;;;;;;5.01;92.61;100292.03;5073022;28;20298;-52
2022/03/16 06:40:48;;;;;;;90.50;44.27;;;;;;;4.98;93.03;100297.16;5072871;28;20206;-50
2022/03/16 06:43:15;;;;;;;104.90;47.27;;;;;;;4.80;94.66;100302.19;5072829;28;20188;-49
2022/03/16 06:45:42;;;;;;;111.43;55.03;;;;;;;4.78;94.80;100287.59;5072622;28;20203;-57
2022/03/16 06:48:09;;;;;;;108.00;56.53;;;;;;;4.71;96.09;100299.56;5072627;28;20199;-52
2022/03/16 06:50:37;;;;;;;119.13;59.50;;;;;;;4.87;94.59;100295.34;5072650;28;20204;-52
2022/03/16 06:53:04;;;;;;;111.57;55.80;;;;;;;4.90;94.68;100291.09;5072595;28;20679;-52
2022/03/16 06:55:31;;;;;;;112.93;55.87;;;;;;;4.93;94.59;100283.41;5072468;28;20224;-52
2022/03/16 06:57:59;;;;;;;117.20;53.73;;;;;;;4.99;93.66;100286.00;5072549;28;20260;-52
2022/03/16 07:00:26;;;;;;;95.83;48.97;;;;;;;5.02;92.35;100280.91;5072734;28;20196;-50
2022/03/16 07:02:57;;;;;;;101.03;45.60;;;;;;;4.98;92.74;100279.13;5072780;28;20199;-50
2022/03/16 07:05:30;;;;;;;86.80;44.67;;;;;;;5.04;92.58;100279.19;5072842;28;20280;-50
2022/03/16 07:07:57;;;;;;;86.17;43.37;;;;;;;4.86;91.92;100252.47;5072531;28;20559;-50
2022/03/16 07:10:25;;;;;;;78.20;43.87;;;;;;;5.02;92.02;100280.91;5072423;28;20188;-49
2022/03/16 07:12:51;;;;;;;102.00;49.87;;;;;;;5.00;91.76;100282.59;5072506;28;20622;-50
2022/03/16 07:15:21;;;;;;;90.87;48.80;;;;;;;4.92;92.60;100270.53;5072321;28;20639;-49
2022/03/16 07:17:48;;;;;;;109.87;48.87;;;;;;;5.01;92.57;100279.16;5072231;28;20709;-50
2022/03/16 07:20:15;;;;;;;133.20;49.60;;;;;;;4.97;93.24;100274.84;5072193;28;20743;-49
2022/03/16 07:22:43;;;;;;;94.93;43.07;;;;;;;4.99;93.42;100277.44;5071918;28;20201;-50
2022/03/16 07:25:11;;;;;;;104.30;43.70;;;;;;;4.86;94.43;100260.19;5071010;28;20269;-51
2022/03/16 07:27:38;;;;;;;108.17;45.73;;;;;;;4.96;94.73;100262.00;5072054;28;20188;-51
2022/03/16 07:30:07;;;;;;;101.97;47.40;;;;;;;4.96;95.24;100267.16;5071948;28;20207;-50
2022/03/16 07:32:37;;;;;;;115.23;51.83;;;;;;;4.93;95.50;100267.97;5071691;28;20234;-49
2022/03/16 07:35:04;;;;;;;134.50;54.37;;;;;;;4.96;95.51;100264.56;5071875;28;20687;-49
2022/03/16 07:37:31;;;;;;;116.87;52.53;;;;;;;4.98;95.72;100263.72;5071851;28;20317;-47
2022/03/16 07:39:58;;;;;;;107.23;48.83;;;;;;;5.04;95.10;100265.47;5072253;28;20751;-47
2022/03/16 07:42:25;;;;;;;88.97;40.67;;;;;;;5.09;94.21;100264.63;5071674;28;20202;-48
2022/03/16 07:44:51;;;;;;;72.00;37.93;;;;;;;5.08;93.72;100256.91;5071993;28;20596;-49
2022/03/16 07:47:18;;;;;;;62.27;34.87;;;;;;;5.17;92.98;100268.97;5071772;28;20203;-49
2022/03/16 07:49:47;;;;;;;72.87;37.23;;;;;;;5.18;91.16;100260.41;5071338;28;20192;-48
2022/03/16 07:52:13;;;;;;;85.93;40.30;;;;;;;5.09;91.77;100254.31;5071335;28;20287;-48
2022/03/16 07:54:40;;;;;;;93.30;45.73;;;;;;;5.11;91.80;100265.50;5071282;28;20282;-49
2022/03/16 07:57:08;;;;;;;95.27;48.20;;;;;;;5.19;92.03;100251.84;5071486;28;20202;-48
2022/03/16 07:59:35;;;;;;;101.70;51.00;;;;;;;5.27;92.05;100257.84;5071021;28;20667;-48
2022/03/16 08:02:02;;;;;;;120.57;56.90;;;;;;;5.24;92.65;100265.56;5071463;28;20196;-49
2022/03/16 08:04:28;;;;;;;111.43;53.67;;;;;;;5.24;92.52;100255.25;5089574;28;20210;-49
2022/03/16 08:06:57;;;;;;;119.30;58.20;;;;;;;5.31;92.32;100259.56;5091403;28;20206;-50
2022/03/16 08:09:24;;;;;;;113.07;55.60;;;;;;;5.39;91.71;100258.78;5091506;28;20210;-50
2022/03/16 08:11:50;;;;;;;101.57;49.33;;;;;;;5.52;89.52;100262.25;5091369;28;20222;-50
2022/03/16 08:14:17;;;;;;;75.43;38.20;;;;;;;5.68;86.40;100256.28;5090925;28;20215;-50
2022/03/16 08:16:44;;;;;;;58.97;30.73;;;;;;;5.72;85.75;100255.44;5090840;28;20198;-50
2022/03/16 08:19:13;;;;;;;64.40;31.27;;;;;;;5.60;86.63;100262.28;5091066;28;20676;-51
2022/03/16 08:21:40;;;;;;;60.30;29.23;;;;;;;5.52;87.79;100261.41;5091035;28;20191;-51
2022/03/16 08:24:08;;;;;;;54.60;29.03;;;;;;;5.72;87.46;100264.88;5091110;28;20192;-51
2022/03/16 08:26:35;;;;;;;45.10;25.87;;;;;;;5.88;84.38;100245.16;5070791;28;20623;-50
2022/03/16 08:29:02;;;;;;;43.60;25.70;;;;;;;5.94;81.41;100229.75;5070950;28;20202;-51
2022/03/16 08:31:29;;;;;;;50.27;26.20;;;;;;;6.26;79.06;100242.66;5070724;28;20587;-50
2022/03/16 08:33:56;;;;;;;53.57;25.60;;;;;;;6.39;78.23;100242.66;5070467;28;20220;-51
2022/03/16 08:36:23;;;;;;;49.50;25.53;;;;;;;6.49;77.05;100240.94;5070356;28;20196;-50
2022/03/16 08:38:50;;;;;;;48.70;26.20;;;;;;;6.45;77.78;100234.91;5070615;28;20686;-51
2022/03/16 08:41:18;;;;;;;58.93;28.37;;;;;;;6.53;77.49;100243.53;5070675;28;20590;-49
2022/03/16 08:43:45;;;;;;;53.87;26.97;;;;;;;6.66;76.99;100246.94;5070402;28;20195;-48
2022/03/16 08:46:12;;;;;;;50.60;26.77;;;;;;;6.66;75.86;100248.69;5069958;28;20196;-49
2022/03/16 08:48:40;;;;;;;45.70;26.33;;;;;;;6.70;75.40;100225.44;5070330;28;20200;-48
2022/03/16 08:51:08;;;;;;;45.10;25.60;;;;;;;7.03;73.48;100237.41;5070404;28;20254;-48
2022/03/16 08:53:37;;;;;;;52.87;25.73;;;;;;;7.20;72.15;100220.16;5070307;28;20724;-48
2022/03/16 08:56:04;;;;;;;53.13;27.83;;;;;;;7.41;70.51;100237.28;5069795;28;20195;-47
2022/03/16 08:58:33;;;;;;;49.57;26.17;;;;;;;7.48;69.80;100230.34;5070389;28;20283;-49
2022/03/16 09:01:00;;;;;;;48.07;27.50;;;;;;;7.43;69.35;100237.25;5070291;28;20230;-49
2022/03/16 09:03:27;;;;;;;47.30;26.10;;;;;;;7.40;70.44;100232.09;5070162;28;20196;-49
2022/03/16 09:05:54;;;;;;;47.53;27.60;;;;;;;7.27;70.15;100231.28;5066248;28;20612;-48
2022/03/16 09:08:21;;;;;;;47.17;27.00;;;;;;;7.34;70.18;100226.94;5069313;28;20200;-48
2022/03/16 09:10:50;;;;;;;47.37;26.43;;;;;;;7.38;68.86;100239.00;5069868;28;20202;-49
2022/03/16 09:13:17;;;;;;;58.77;27.47;;;;;;;7.55;68.98;100234.63;5064816;28;20707;-48
2022/03/16 09:15:46;;;;;;;45.90;25.77;;;;;;;7.57;67.64;100241.47;5067335;28;20199;-48
2022/03/16 09:18:13;;;;;;;41.83;24.37;;;;;;;7.58;67.50;100247.50;5068981;28;20204;-49
2022/03/16 09:20:40;;;;;;;43.97;24.00;;;;;;;7.71;66.82;100249.16;5069013;28;20196;-49
2022/03/16 09:23:08;;;;;;;46.67;24.07;;;;;;;7.71;65.45;100246.56;5069143;28;20198;-49
2022/03/16 09:25:35;;;;;;;41.80;23.90;;;;;;;7.78;65.13;100248.28;5080485;28;20788;-49
2022/03/16 09:28:03;;;;;;;48.93;24.50;;;;;;;7.90;64.75;100240.41;5089306;28;20672;-48
2022/03/16 09:30:30;;;;;;;43.13;23.50;;;;;;;7.88;64.46;100238.75;5089621;28;20201;-48
2022/03/16 09:32:59;;;;;;;39.90;24.07;;;;;;;7.94;63.62;100231.78;5069916;28;20216;-49
2022/03/16 09:35:27;;;;;;;37.50;24.30;;;;;;;7.82;64.12;100213.78;5069154;28;20219;-48
2022/03/16 09:37:54;;;;;;;42.83;23.70;;;;;;;7.82;63.76;100220.66;5069161;28;20219;-49
2022/03/16 09:40:22;;;;;;;39.47;23.60;;;;;;;7.76;63.82;100221.59;5068631;28;20255;-49
2022/03/16 09:42:50;;;;;;;41.10;22.90;;;;;;;7.78;62.86;100203.50;5069189;28;20223;-51
2022/03/16 09:45:19;;;;;;;51.23;24.87;;;;;;;7.94;62.58;100190.44;5069210;28;20226;-52
2022/03/16 09:47:47;;;;;;;49.17;25.17;;;;;;;8.19;62.07;100211.78;5069108;28;20306;-50
2022/03/16 09:50:17;;;;;;;52.13;24.53;;;;;;;8.22;61.16;100208.34;5080723;28;20268;-52
2022/03/16 09:52:46;;;;;;;44.70;23.60;;;;;;;8.26;61.00;100205.69;5092099;28;20245;-51
2022/03/16 09:55:13;;;;;;;41.50;23.97;;;;;;;8.34;60.07;100206.53;5092852;28;20287;-51
2022/03/16 09:57:41;;;;;;;46.67;23.03;;;;;;;8.28;59.19;100198.78;5089691;28;20223;-51
2022/03/16 10:00:12;;;;;;;37.40;22.77;;;;;;;8.23;60.15;100191.94;5073114;28;20305;-51
2022/03/16 10:02:40;;;;;;;34.00;23.13;;;;;;;8.15;59.20;100168.72;5073063;28;20215;-52
2022/03/16 10:05:09;;;;;;;41.37;22.93;;;;;;;8.25;59.04;100191.03;5074633;28;20326;-51
2022/03/16 10:07:38;;;;;;;36.93;22.70;;;;;;;8.07;59.84;100159.31;5090367;28;20223;-52
2022/03/16 10:15:35;;;;;;;38.53;23.47;;;;;;;8.48;59.21;100175.34;5089639;28;20718;-52
2022/03/16 10:18:04;;;;;;;47.67;23.83;;;;;;;8.59;59.98;100173.50;5088718;28;20219;-51
2022/03/16 10:20:33;;;;;;;39.53;23.90;;;;;;;8.62;59.33;100168.31;5085052;28;20219;-51
2022/03/16 10:23:04;;;;;;;42.13;25.00;;;;;;;8.68;59.09;100172.56;5091907;28;20291;-51
2022/03/16 10:25:32;;;;;;;37.00;24.40;;;;;;;8.57;58.90;100167.50;5092139;28;20231;-51
2022/03/16 10:28:11;;;;;;;41.73;24.93;;;;;;;8.64;58.88;100158.81;5092892;28;20283;-52
2022/03/16 10:30:40;;;;;;;47.23;25.77;;;;;;;8.58;58.33;100164.03;5092820;28;20225;-53
2022/03/16 10:33:08;;;;;;;50.47;26.77;;;;;;;8.35;59.13;100166.00;5092891;28;20562;-52
2022/03/16 10:35:35;;;;;;;41.40;25.20;;;;;;;8.36;59.34;100172.88;5092525;28;20282;-52
2022/03/16 10:38:12;;;;;;;47.80;24.87;;;;;;;8.39;60.24;100162.50;5089731;28;20580;-52
2022/03/16 10:40:39;;;;;;;39.83;25.63;;;;;;;8.41;59.44;100160.75;5091364;28;20195;-52
2022/03/16 10:49:02;;;;;;;43.27;25.63;;;;;;;8.70;58.08;100142.34;5091386;28;20733;-52
2022/03/16 10:51:30;;;;;;;50.73;25.37;;;;;;;8.61;58.63;100143.28;5090030;28;20663;-53
2022/03/16 10:54:00;;;;;;;46.20;25.77;;;;;;;8.62;58.85;100119.13;5091251;28;20221;-51
2022/03/16 10:56:29;;;;;;;49.23;27.60;;;;;;;8.79;57.50;100138.81;5091536;28;20211;-51
2022/03/16 10:58:57;;;;;;;53.27;26.50;;;;;;;8.84;57.93;100126.66;5089018;28;20242;-51
2022/03/16 11:01:26;;;;;;;55.93;28.73;;;;;;;8.85;57.28;100124.03;5091200;28;20223;-52
2022/03/16 11:03:55;;;;;;;41.50;27.40;;;;;;;8.90;57.27;100131.78;5092005;28;20691;-52
2022/03/16 11:06:22;;;;;;;43.30;27.20;;;;;;;8.90;57.22;100127.44;5091793;28;20227;-52
2022/03/16 11:08:50;;;;;;;46.83;28.80;;;;;;;8.77;57.95;100131.06;5091253;28;20649;-51
2022/03/16 11:14:04;;;;;;;44.43;25.63;;;;;;;8.85;56.39;100094.72;5091715;28;20261;-51
2022/03/16 11:16:32;;;;;;;46.37;26.63;;;;;;;9.03;56.10;100126.41;5091744;28;20219;-52
2022/03/16 11:19:00;;;;;;;50.57;27.67;;;;;;;9.01;56.72;100123.00;5091272;28;20225;-52
2022/03/16 11:21:31;;;;;;;52.47;25.73;;;;;;;9.05;56.51;100118.59;5091718;28;20237;-52
2022/03/16 11:24:17;;;;;;;42.60;25.17;;;;;;;8.99;55.83;100098.00;5091343;28;20261;-52
2022/03/16 11:27:16;;;;;;;48.27;27.53;;;;;;;8.88;56.36;100115.41;5071386;28;20220;-52
2022/03/16 11:30:07;;;;;;;48.90;27.20;;;;;;;8.84;57.10;100116.28;5070964;28;20296;-51
2022/03/16 11:32:38;;;;;;;56.30;27.40;;;;;;;8.66;57.20;100094.94;5071418;28;20224;-51